Time;durP1;ratioP1;P1;durP2;ratioP2;P2;SDS_P1;SDS_P2;PMS_P1;PMS_P2;Temp;Humidity;BMP_temperature;BMP_pressure;BME280_temperature;BME280_humidity;BME280_pressure;Samples;Min_cycle;Max_cycle;Signal;HPM_P1;HPM_P2
2023/03/09 00:01:50;;;;;;;17.90;10.57;;;1.70;99.90;;;-141.84;87.90;18734.81;5071842;28;20195;-70
2023/03/09 00:04:19;;;;;;;16.10;9.87;;;1.70;99.90;;;-141.84;88.25;18724.66;5072118;28;20224;-71
2023/03/09 00:06:48;;;;;;;19.50;11.73;;;1.60;99.90;;;-141.84;88.58;18730.75;5071598;28;20731;-69
2023/03/09 00:09:17;;;;;;;20.43;11.70;;;1.60;99.90;;;-141.84;88.55;18728.72;5069272;28;20235;-72
2023/03/09 00:11:49;;;;;;;20.50;11.23;;;1.60;99.90;;;-141.84;88.96;18722.63;5071565;28;20224;-70
2023/03/09 00:14:21;;;;;;;19.40;11.87;;;1.60;99.90;;;-141.84;88.74;18757.16;5071327;28;20585;-71
2023/03/09 00:16:49;;;;;;;19.67;11.60;;;1.60;99.90;;;-141.84;88.52;18736.84;5071553;28;20208;-68
2023/03/09 00:19:26;;;;;;;19.13;11.57;;;1.70;99.90;;;-141.84;88.52;18730.75;5071311;28;20232;-70
2023/03/09 00:21:58;;;;;;;19.07;10.93;;;1.60;99.90;;;-141.84;88.91;18728.72;5070988;28;20235;-71
2023/03/09 00:24:28;;;;;;;21.03;11.77;;;1.60;99.90;;;-141.84;88.97;18702.28;5071109;28;20640;-72
2023/03/09 00:27:00;;;;;;;18.00;10.60;;;1.60;99.90;;;-141.84;89.08;18694.16;5070698;28;20727;-69
2023/03/09 00:29:32;;;;;;;18.90;11.10;;;1.60;99.90;;;-141.84;88.68;18722.63;5052453;28;20224;-70
2023/03/09 00:32:00;;;;;;;18.57;11.07;;;1.60;99.90;;;-141.84;88.61;18673.84;5067884;28;20207;-70
2023/03/09 00:34:28;;;;;;;18.60;11.00;;;1.50;99.90;;;-141.84;88.88;18738.88;5071931;28;20224;-70
2023/03/09 00:36:56;;;;;;;19.03;11.40;;;1.50;99.90;;;-141.84;89.56;18744.97;5070401;28;20229;-69
2023/03/09 00:39:24;;;;;;;18.87;10.97;;;1.50;99.90;;;-141.84;89.07;18712.47;5070712;28;20235;-70
2023/03/09 00:41:53;;;;;;;18.13;10.53;;;1.50;99.90;;;-141.84;88.77;18712.47;5070786;28;20599;-71
2023/03/09 00:44:21;;;;;;;17.07;10.93;;;1.60;99.90;;;-141.84;89.12;18679.94;5071201;28;20235;-71
2023/03/09 00:46:50;;;;;;;19.93;11.67;;;1.50;99.90;;;-141.84;89.68;18716.53;5071211;28;20197;-71
2023/03/09 00:49:19;;;;;;;17.20;10.37;;;1.40;99.90;;;-141.84;89.93;18698.22;5071063;28;20227;-69
2023/03/09 00:51:47;;;;;;;19.67;11.57;;;1.40;99.90;;;-141.84;89.97;18714.50;5070407;28;20228;-71
2023/03/09 00:54:16;;;;;;;18.33;11.20;;;1.50;99.90;;;-141.84;90.15;18692.13;5070352;28;20731;-69
2023/03/09 00:56:44;;;;;;;20.03;11.53;;;1.50;99.90;;;-141.84;89.49;18722.63;5070719;28;20223;-70
2023/03/09 00:59:12;;;;;;;17.97;10.33;;;1.60;99.90;;;-141.84;89.23;18702.28;5070779;28;20205;-71
2023/03/09 01:01:40;;;;;;;18.43;11.47;;;1.60;99.90;;;-141.84;89.68;18686.03;5071116;28;20208;-71
2023/03/09 01:04:10;;;;;;;18.37;10.97;;;1.50;99.90;;;-141.84;89.81;18704.31;5070704;28;20220;-70
2023/03/09 01:06:39;;;;;;;19.53;11.03;;;1.60;99.90;;;-141.84;89.59;18684.00;5070176;28;20224;-70
2023/03/09 01:09:07;;;;;;;18.73;9.93;;;1.60;99.90;;;-141.84;89.59;18694.16;5070367;28;20286;-71
2023/03/09 01:11:35;;;;;;;17.90;10.73;;;1.50;99.90;;;-141.84;89.65;18684.00;5070396;28;20224;-70
2023/03/09 01:14:04;;;;;;;17.37;10.50;;;1.50;99.90;;;-141.84;89.26;18720.59;5070291;28;20205;-72
2023/03/09 01:16:32;;;;;;;20.23;11.17;;;1.60;99.90;;;-141.84;89.32;18702.28;5070832;28;20204;-70
2023/03/09 01:19:00;;;;;;;19.90;11.20;;;1.50;99.90;;;-141.84;89.31;18698.22;5070326;28;20229;-71
2023/03/09 01:21:30;;;;;;;17.10;10.33;;;1.50;99.90;;;-141.84;89.20;18708.41;5070198;28;20715;-71
2023/03/09 01:23:58;;;;;;;18.00;10.37;;;1.50;99.90;;;-141.84;89.43;18684.00;5070104;28;20236;-71
2023/03/09 01:26:26;;;;;;;19.23;10.53;;;1.60;99.90;;;-141.84;89.03;18720.59;5069987;28;20236;-70
2023/03/09 01:28:54;;;;;;;19.23;10.60;;;1.60;99.90;;;-141.84;89.11;18726.69;5070477;28;20470;-70
2023/03/09 01:31:22;;;;;;;17.87;10.60;;;1.60;99.90;;;-141.84;89.20;18720.59;5070795;28;20216;-70
2023/03/09 01:33:52;;;;;;;16.43;9.70;;;1.60;99.90;;;-141.84;89.25;18712.47;5070097;28;20225;-71
2023/03/09 01:36:21;;;;;;;17.57;10.07;;;1.60;99.90;;;-141.84;89.42;18710.44;5070167;28;20321;-69
2023/03/09 01:38:51;;;;;;;20.97;10.83;;;1.70;99.90;;;-141.84;89.53;18722.63;5069983;28;20229;-69
2023/03/09 01:41:22;;;;;;;20.20;10.67;;;1.60;99.90;;;-141.84;89.41;18742.94;5070502;28;20224;-70
2023/03/09 01:43:52;;;;;;;17.30;10.30;;;1.70;99.90;;;-141.84;89.78;18712.47;5071088;28;20189;-70
2023/03/09 01:46:39;;;;;;;17.43;9.60;;;1.60;99.90;;;-141.84;89.32;18694.16;5074144;28;20242;-70
2023/03/09 01:49:20;;;;;;;17.50;10.37;;;1.70;99.90;;;-141.84;89.22;18686.03;5074038;28;20275;-70
2023/03/09 01:51:57;;;;;;;16.77;9.73;;;1.70;99.90;;;-141.84;89.06;18749.03;5055412;28;20221;-70
2023/03/09 01:54:35;;;;;;;14.93;9.27;;;1.60;99.90;;;-141.84;89.13;18704.31;5073754;28;20231;-70
2023/03/09 01:57:13;;;;;;;14.73;8.83;;;1.60;99.90;;;-141.84;89.13;18673.84;5073621;28;20236;-70
2023/03/09 01:59:45;;;;;;;14.23;8.50;;;1.50;99.90;;;-141.84;89.28;18679.94;5073751;28;20228;-71
2023/03/09 02:02:16;;;;;;;13.50;8.80;;;1.40;99.90;;;-141.84;89.13;18700.25;5073586;28;20265;-71
2023/03/09 02:04:49;;;;;;;13.50;7.57;;;1.50;99.90;;;-141.84;89.36;18675.88;5074439;28;20547;-70
2023/03/09 02:07:22;;;;;;;13.30;7.70;;;1.30;99.90;;;-141.84;89.53;18684.00;5073339;28;20221;-71
2023/03/09 02:09:58;;;;;;;14.73;8.30;;;1.40;99.90;;;-141.84;89.82;18667.75;5034754;28;20240;-71
2023/03/09 02:12:29;;;;;;;12.37;7.60;;;1.30;99.90;;;-141.84;89.85;18671.81;5053837;28;20229;-70
2023/03/09 02:14:58;;;;;;;12.43;7.63;;;1.30;99.90;;;-141.84;89.99;18681.97;5054224;28;20233;-70
2023/03/09 02:17:26;;;;;;;11.47;7.30;;;1.30;99.90;;;-141.84;90.22;18718.56;5053847;28;20221;-70
2023/03/09 02:20:09;;;;;;;9.97;6.20;;;1.30;99.90;;;-141.84;90.25;18700.25;5053763;28;20819;-69
2023/03/09 02:22:39;;;;;;;10.60;6.40;;;1.20;99.90;;;-141.84;90.23;18677.91;5054604;28;20211;-72
2023/03/09 02:25:24;;;;;;;10.03;7.20;;;1.10;99.90;;;-141.84;90.25;18688.06;5053554;28;20224;-71
2023/03/09 02:27:54;;;;;;;9.37;6.53;;;1.20;99.90;;;-141.84;90.18;18677.91;5073153;28;20228;-71
2023/03/09 02:30:26;;;;;;;8.90;6.80;;;1.20;99.90;;;-141.84;90.16;18684.00;5074007;28;20231;-72
2023/03/09 02:33:04;;;;;;;8.87;6.07;;;1.20;99.90;;;-141.84;90.19;18706.38;5074381;28;20582;-70
2023/03/09 02:35:33;;;;;;;8.67;6.13;;;1.20;99.90;;;-141.84;90.03;18655.56;5074279;28;20224;-70
2023/03/09 02:38:01;;;;;;;8.67;6.13;;;1.20;99.90;;;-141.84;90.11;18688.06;5073368;28;20208;-71
2023/03/09 02:40:33;;;;;;;8.23;5.97;;;1.20;99.90;;;-141.84;90.27;18692.13;5073952;28;20200;-70
2023/03/09 02:43:05;;;;;;;8.70;5.83;;;1.10;99.90;;;-141.84;90.05;18696.19;5073544;28;20244;-71
2023/03/09 02:45:34;;;;;;;9.73;6.43;;;1.20;99.90;;;-141.84;89.97;18692.13;5073412;28;20236;-70
2023/03/09 02:48:03;;;;;;;8.90;6.00;;;1.20;99.90;;;-141.84;89.75;18679.94;5073000;28;20319;-72
2023/03/09 02:50:31;;;;;;;8.97;5.93;;;1.20;99.90;;;-141.84;89.88;18675.88;5073561;28;20221;-71
2023/03/09 02:53:00;;;;;;;8.73;5.23;;;1.20;99.90;;;-141.84;89.51;18686.03;5073096;28;20204;-69
2023/03/09 02:55:29;;;;;;;8.63;5.73;;;1.30;99.90;;;-141.84;89.34;18700.25;5073417;28;20201;-70
2023/03/09 02:57:57;;;;;;;7.30;5.30;;;1.40;99.90;;;-141.84;89.54;18677.91;5073311;28;20232;-71
2023/03/09 03:00:27;;;;;;;9.00;5.70;;;1.20;99.90;;;-141.84;90.05;18706.38;5073153;28;20235;-70
2023/03/09 03:02:56;;;;;;;8.80;5.97;;;1.20;99.90;;;-141.84;89.87;18696.19;5072828;28;20223;-69
2023/03/09 03:05:24;;;;;;;8.73;5.63;;;1.20;99.90;;;-141.84;89.87;18686.03;5074873;28;20231;-70
2023/03/09 03:07:52;;;;;;;7.97;5.00;;;1.30;99.90;;;-141.84;89.91;18659.63;5073514;28;20207;-70
2023/03/09 03:10:21;;;;;;;7.40;5.03;;;1.30;99.90;;;-141.84;90.01;18681.97;5072869;28;20200;-69
2023/03/09 03:12:49;;;;;;;8.17;5.53;;;1.30;99.90;;;-141.84;90.09;18669.78;5072997;28;20606;-70
2023/03/09 03:15:18;;;;;;;8.50;6.07;;;1.30;99.90;;;-141.84;89.89;18694.16;5072996;28;20217;-69
2023/03/09 03:17:47;;;;;;;8.23;5.53;;;1.30;99.90;;;-141.84;89.89;18710.44;5037864;28;20601;-70
2023/03/09 03:20:15;;;;;;;7.63;5.53;;;1.30;99.90;;;-141.84;89.60;18673.84;5072797;28;20233;-70
2023/03/09 03:22:44;;;;;;;7.60;5.00;;;1.40;99.90;;;-141.84;89.91;18728.72;5073162;28;20216;-70
2023/03/09 03:25:13;;;;;;;7.37;4.90;;;1.30;99.90;;;-141.84;89.54;18692.13;5072406;28;20239;-70
2023/03/09 03:27:41;;;;;;;6.83;4.90;;;1.30;99.90;;;-141.84;89.19;18736.84;5072914;28;20221;-69
2023/03/09 03:30:12;;;;;;;7.57;4.93;;;1.30;99.90;;;-141.84;88.93;18686.03;5072949;28;20223;-71
2023/03/09 03:32:41;;;;;;;6.87;5.00;;;1.30;99.90;;;-141.84;88.67;18692.13;5072515;28;20223;-70
2023/03/09 03:35:11;;;;;;;6.63;5.00;;;1.40;99.90;;;-141.84;89.07;18710.44;5072625;28;20203;-70
2023/03/09 03:37:39;;;;;;;7.53;5.53;;;1.40;99.90;;;-141.84;89.07;18684.00;5072441;28;20200;-70
2023/03/09 03:40:09;;;;;;;7.13;4.93;;;1.40;99.90;;;-141.84;89.09;18700.25;5071659;28;20575;-70
2023/03/09 03:42:37;;;;;;;7.27;5.10;;;1.40;99.90;;;-141.84;88.89;18696.19;5072042;28;20236;-70
2023/03/09 03:45:07;;;;;;;8.07;5.53;;;1.50;99.90;;;-141.84;88.46;18710.44;5071764;28;20712;-69
2023/03/09 03:47:36;;;;;;;7.80;5.40;;;1.40;99.90;;;-141.84;88.18;18702.28;5056739;28;20228;-69
2023/03/09 03:50:05;;;;;;;7.70;5.77;;;1.50;99.90;;;-141.84;88.61;18692.13;5051763;28;20673;-70
2023/03/09 03:52:35;;;;;;;8.07;5.53;;;1.40;99.90;;;-141.84;88.91;18698.22;5052386;28;20216;-71
2023/03/09 03:55:04;;;;;;;6.87;4.97;;;1.30;99.90;;;-141.84;89.40;18686.03;5051747;28;20229;-69
2023/03/09 03:57:32;;;;;;;8.33;5.90;;;1.30;99.90;;;-141.84;89.25;18694.16;5016799;28;20229;-69
2023/03/09 04:00:00;;;;;;;7.60;5.50;;;1.30;99.90;;;-141.84;89.51;18694.16;5051588;28;20237;-69
2023/03/09 04:02:28;;;;;;;8.47;5.53;;;1.40;99.90;;;-141.84;88.70;18681.97;5065211;28;20660;-71
2023/03/09 04:04:56;;;;;;;8.03;5.63;;;1.30;99.90;;;-141.84;88.68;18684.00;5074084;28;20671;-70
2023/03/09 04:07:24;;;;;;;8.07;5.60;;;1.30;99.90;;;-141.84;88.65;18677.91;5085982;28;20216;-71
2023/03/09 04:09:54;;;;;;;8.20;6.13;;;1.40;99.90;;;-141.84;88.33;18688.06;5070942;28;20785;-70
2023/03/09 04:12:23;;;;;;;7.07;5.20;;;1.40;99.90;;;-141.84;88.85;18718.56;5036165;28;20233;-70
2023/03/09 04:14:51;;;;;;;8.27;6.07;;;1.40;99.90;;;-141.84;89.02;18690.09;5071347;28;20228;-70
2023/03/09 04:17:19;;;;;;;8.13;5.50;;;1.40;99.90;;;-141.84;88.35;18726.69;5071728;28;20247;-70
2023/03/09 04:19:47;;;;;;;9.23;6.07;;;1.50;99.90;;;-141.84;88.40;18710.44;5071238;28;20237;-70
2023/03/09 04:22:15;;;;;;;7.30;5.57;;;1.40;99.90;;;-141.84;88.17;18686.03;5070911;28;20220;-70
2023/03/09 04:24:43;;;;;;;7.53;5.40;;;1.40;99.90;;;-141.84;88.25;18720.59;5070888;28;20233;-70
2023/03/09 04:27:13;;;;;;;9.00;5.83;;;1.40;99.90;;;-141.84;88.48;18688.06;5070984;28;20246;-70
2023/03/09 04:29:41;;;;;;;9.17;6.10;;;1.40;99.90;;;-141.84;88.51;18679.94;5070999;28;20224;-59
2023/03/09 04:32:09;;;;;;;7.47;5.90;;;1.40;99.90;;;-141.84;88.76;18700.25;5070780;28;20676;-58
2023/03/09 04:34:37;;;;;;;7.73;5.90;;;1.30;99.90;;;-141.84;89.32;18710.44;5070996;28;20594;-59
2023/03/09 04:37:06;;;;;;;9.00;6.43;;;1.40;99.90;;;-141.84;89.36;18688.06;5070557;28;20264;-59
2023/03/09 04:39:34;;;;;;;8.57;5.87;;;1.40;99.90;;;-141.84;89.33;18708.41;5058951;28;20225;-58
2023/03/09 04:42:02;;;;;;;8.93;6.40;;;1.40;99.90;;;-141.84;89.46;18706.38;5070734;28;20229;-57
2023/03/09 04:44:32;;;;;;;9.60;6.23;;;1.30;99.90;;;-141.84;89.34;18677.91;5070873;28;20216;-58
2023/03/09 04:47:00;;;;;;;9.37;6.33;;;1.40;99.90;;;-141.84;89.57;18708.41;5070253;28;20247;-60
2023/03/09 04:49:29;;;;;;;9.00;6.13;;;1.40;99.90;;;-141.84;89.46;18684.00;5071022;28;20216;-60
2023/03/09 04:51:57;;;;;;;8.23;6.10;;;1.40;99.90;;;-141.84;89.26;18681.97;5070491;28;20247;-57
2023/03/09 04:54:25;;;;;;;9.53;6.17;;;1.30;99.90;;;-141.84;89.42;18688.06;5070612;28;20322;-59
2023/03/09 04:56:53;;;;;;;8.53;6.37;;;1.40;99.90;;;-141.84;89.45;18647.44;5070363;28;20228;-60
2023/03/09 04:59:21;;;;;;;11.23;7.07;;;1.30;99.90;;;-141.84;89.11;18706.38;5053374;28;20225;-59
2023/03/09 05:01:51;;;;;;;9.10;6.40;;;1.40;99.90;;;-141.84;89.27;18690.09;5051091;28;20201;-58
2023/03/09 05:04:20;;;;;;;8.80;6.40;;;1.70;99.90;;;-141.84;88.68;18704.31;5051480;28;20296;-59
2023/03/09 05:06:48;;;;;;;8.83;6.20;;;1.50;99.90;;;-141.84;88.72;18663.69;5086939;28;20227;-58
2023/03/09 05:09:17;;;;;;;10.23;6.00;;;1.50;99.90;;;-141.84;88.74;18696.19;5068213;28;20238;-58
2023/03/09 05:11:46;;;;;;;10.50;6.70;;;1.40;99.90;;;-141.84;89.16;18684.00;5070214;28;20217;-58
2023/03/09 05:14:14;;;;;;;10.10;6.33;;;1.40;99.90;;;-141.84;89.55;18679.94;5070203;28;20263;-58
2023/03/09 05:16:42;;;;;;;8.90;6.17;;;1.30;99.90;;;-141.84;89.99;18688.06;5071145;28;20644;-58
2023/03/09 05:19:12;;;;;;;8.07;5.57;;;1.30;99.90;;;-141.84;90.32;18692.13;5070242;28;20229;-60
2023/03/09 05:21:40;;;;;;;8.37;5.93;;;1.30;99.90;;;-141.84;90.22;18655.56;5068866;28;20228;-59
2023/03/09 05:24:09;;;;;;;9.93;6.43;;;1.40;99.90;;;-141.84;89.05;18698.22;5070402;28;20236;-59
2023/03/09 05:26:37;;;;;;;8.43;5.90;;;1.50;99.90;;;-141.84;89.12;18698.22;5070177;28;20645;-59
2023/03/09 05:29:05;;;;;;;10.63;6.73;;;1.40;99.90;;;-141.84;89.01;18688.06;5070394;28;20197;-58
2023/03/09 05:31:33;;;;;;;10.40;6.87;;;1.50;99.90;;;-141.84;88.67;18690.09;5070758;28;20269;-60
2023/03/09 05:34:01;;;;;;;9.50;6.80;;;1.40;99.90;;;-141.84;88.95;18708.41;5070015;28;20562;-60
2023/03/09 05:36:32;;;;;;;9.63;6.07;;;1.40;99.90;;;-141.84;88.70;18712.47;5069882;28;20734;-59
2023/03/09 05:39:00;;;;;;;10.77;7.20;;;1.50;99.90;;;-141.84;88.47;18700.25;5070039;28;20737;-60
2023/03/09 05:41:28;;;;;;;10.70;6.97;;;1.50;99.90;;;-141.84;88.13;18716.53;5034958;28;20231;-58
2023/03/09 05:43:59;;;;;;;11.47;7.97;;;1.50;99.90;;;-141.84;88.15;18667.75;5070371;28;20205;-70
2023/03/09 05:46:28;;;;;;;10.17;6.83;;;1.50;99.90;;;-141.84;88.34;18684.00;5070599;28;20193;-72
2023/03/09 05:48:56;;;;;;;9.53;7.03;;;1.50;99.90;;;-141.84;88.16;18698.22;5069931;28;20230;-71
2023/03/09 05:51:24;;;;;;;12.10;8.00;;;1.50;99.90;;;-141.84;88.52;18677.91;5069721;28;20239;-69
2023/03/09 05:53:54;;;;;;;11.53;7.70;;;1.40;99.90;;;-141.84;88.08;18698.22;5067125;28;20220;-71
2023/03/09 05:56:23;;;;;;;12.20;8.30;;;1.50;99.90;;;-141.84;88.23;18653.53;5049645;28;20227;-71
2023/03/09 05:58:52;;;;;;;11.23;8.17;;;1.50;99.90;;;-141.84;88.05;18698.22;5050448;28;20209;-70
2023/03/09 06:01:23;;;;;;;12.80;7.83;;;1.50;99.90;;;-141.84;88.33;18692.13;5049564;28;20231;-59
2023/03/09 06:03:54;;;;;;;13.10;8.40;;;1.50;99.90;;;-141.84;88.74;18694.16;5049761;28;20231;-59
2023/03/09 06:06:23;;;;;;;11.07;7.93;;;1.50;99.90;;;-141.84;88.35;18716.53;5079063;28;20586;-60
2023/03/09 06:08:53;;;;;;;10.87;7.87;;;1.60;99.90;;;-141.84;88.08;18692.13;5072468;28;20224;-58
2023/03/09 06:11:21;;;;;;;9.73;7.87;;;1.60;99.90;;;-141.84;88.47;18704.31;5069489;28;20227;-59
2023/03/09 06:13:53;;;;;;;10.77;7.70;;;1.50;99.90;;;-141.84;88.86;18679.94;5070046;28;20204;-59
2023/03/09 06:16:22;;;;;;;10.50;7.40;;;1.40;99.90;;;-141.84;88.63;18704.31;5069629;28;20723;-58
2023/03/09 06:18:51;;;;;;;11.60;7.67;;;1.40;99.90;;;-141.84;88.21;18684.00;5069589;28;20259;-57
2023/03/09 06:21:19;;;;;;;11.97;7.60;;;1.50;99.90;;;-141.84;87.98;18686.03;5069167;28;20233;-58
2023/03/09 06:23:48;;;;;;;9.10;6.60;;;1.40;99.90;;;-141.84;88.26;18667.75;5069224;28;20221;-58
2023/03/09 06:26:17;;;;;;;10.53;7.30;;;1.40;99.90;;;-141.84;88.56;18698.22;5068882;28;20651;-60
2023/03/09 06:28:47;;;;;;;10.83;7.10;;;1.40;99.90;;;-141.84;87.49;18710.44;5069811;28;20702;-57
2023/03/09 06:31:17;;;;;;;9.63;6.30;;;1.50;99.90;;;-141.84;87.88;18681.97;5071792;28;20224;-59
2023/03/09 06:33:47;;;;;;;9.77;6.70;;;1.40;99.90;;;-141.84;88.30;18690.09;5073172;28;20225;-60
2023/03/09 06:36:18;;;;;;;9.83;7.13;;;1.50;99.90;;;-141.84;88.15;18720.59;5073055;28;20712;-60
2023/03/09 06:38:46;;;;;;;9.70;6.60;;;1.40;99.90;;;-141.84;88.30;18708.41;5073099;28;20221;-59
2023/03/09 06:41:15;;;;;;;9.80;6.50;;;1.50;99.90;;;-141.84;88.51;18706.38;5073033;28;20677;-60
2023/03/09 06:43:48;;;;;;;9.80;6.37;;;1.40;99.90;;;-141.84;87.63;18681.97;5073448;28;20204;-60
2023/03/09 06:46:16;;;;;;;8.63;6.57;;;1.60;99.90;;;-141.84;86.94;18690.09;5072999;28;20220;-58
2023/03/09 06:48:44;;;;;;;9.77;6.10;;;1.50;99.90;;;-141.84;86.84;18673.84;5072498;28;20253;-59
2023/03/09 06:51:12;;;;;;;9.93;6.10;;;1.60;99.90;;;-141.84;87.58;18712.47;5061216;28;20229;-59
2023/03/09 06:53:40;;;;;;;9.33;6.43;;;1.50;99.90;;;-141.84;87.75;18712.47;5052696;28;20248;-60
2023/03/09 06:56:10;;;;;;;10.17;6.73;;;1.70;99.90;;;-141.84;87.62;18694.16;5052859;28;20223;-61
2023/03/09 06:58:39;;;;;;;9.07;6.30;;;1.60;99.90;;;-141.84;88.15;18694.16;5069799;28;20193;-60
2023/03/09 07:01:11;;;;;;;10.57;6.20;;;1.60;99.90;;;-141.84;87.88;18688.06;5072621;28;20224;-60
2023/03/09 07:03:40;;;;;;;9.17;6.03;;;1.70;99.90;;;-141.84;87.76;18694.16;5072376;28;20389;-59
2023/03/09 07:06:09;;;;;;;8.10;5.53;;;1.70;99.90;;;-141.84;88.07;18681.97;5085564;28;20224;-60
2023/03/09 07:08:37;;;;;;;9.70;6.53;;;1.70;99.90;;;-141.84;88.73;18694.16;5077331;28;20285;-61
2023/03/09 07:11:05;;;;;;;10.10;6.53;;;1.70;99.90;;;-141.84;89.29;18696.19;5071736;28;20205;-61
2023/03/09 07:13:34;;;;;;;10.53;7.07;;;1.70;99.90;;;-141.84;88.68;18675.88;5072811;28;20216;-60
2023/03/09 07:16:03;;;;;;;9.93;6.60;;;1.80;99.90;;;-141.84;88.50;18692.13;5071226;28;20247;-60
2023/03/09 07:18:35;;;;;;;9.77;6.73;;;2.20;99.90;;;-141.84;88.31;18684.00;5072050;28;20226;-59
2023/03/09 07:21:04;;;;;;;10.37;7.23;;;1.80;99.90;;;-141.84;88.08;18673.84;5072079;28;20233;-59
2023/03/09 07:23:34;;;;;;;8.93;6.63;;;1.90;99.90;;;-141.84;88.11;18675.88;5072192;28;20244;-59
2023/03/09 07:26:04;;;;;;;10.30;7.07;;;2.00;99.90;;;-141.84;86.48;18690.09;5071820;28;20578;-60
2023/03/09 07:28:33;;;;;;;10.63;7.17;;;2.10;99.90;;;-141.84;85.75;18761.22;5072381;28;20291;-58
2023/03/09 07:31:09;;;;;;;9.40;6.20;;;2.30;99.90;;;-141.84;85.51;18738.88;5071918;28;20235;-60
2023/03/09 07:33:39;;;;;;;8.80;6.20;;;2.20;99.90;;;-141.84;85.43;18716.53;5071335;28;20229;-60
2023/03/09 07:36:10;;;;;;;8.50;6.07;;;2.20;99.90;;;-141.84;84.81;18732.78;5071654;28;20220;-60
2023/03/09 07:38:38;;;;;;;7.63;5.80;;;2.40;99.90;;;-141.84;84.53;18761.22;5071345;28;20233;-59
2023/03/09 07:41:06;;;;;;;9.47;6.03;;;2.60;99.90;;;-141.84;84.78;18755.13;5071160;28;20203;-61
2023/03/09 07:43:35;;;;;;;7.97;6.13;;;2.60;99.90;;;-141.84;84.88;18749.03;5071676;28;20778;-60
2023/03/09 07:46:06;;;;;;;8.33;5.97;;;2.60;99.90;;;-141.84;84.19;18759.19;5070931;28;20221;-59
2023/03/09 07:48:37;;;;;;;9.53;6.80;;;2.50;99.90;;;-141.84;83.95;18767.31;5051470;28;20675;-59
2023/03/09 07:51:08;;;;;;;8.87;5.80;;;2.50;99.90;;;-141.84;83.12;18779.50;5051160;28;20758;-60
2023/03/09 07:53:38;;;;;;;8.07;5.43;;;2.60;99.90;;;-141.84;83.33;18744.97;5050971;28;20740;-59
2023/03/09 07:56:09;;;;;;;7.40;5.50;;;2.60;99.90;;;-141.84;83.06;18761.22;5051272;28;20183;-60
2023/03/09 07:58:39;;;;;;;7.73;5.80;;;2.60;99.90;;;-141.84;82.49;18775.44;5051439;28;20182;-60
2023/03/09 08:01:13;;;;;;;8.83;5.77;;;2.60;99.90;;;-141.84;82.76;18761.22;5051020;28;20227;-61
2023/03/09 08:03:42;;;;;;;6.93;5.57;;;2.60;99.90;;;-141.84;83.27;18785.59;5050973;28;20222;-61
2023/03/09 08:06:12;;;;;;;8.80;6.23;;;2.60;99.90;;;-141.84;82.85;18742.94;5077424;28;20222;-59
2023/03/09 08:08:41;;;;;;;8.27;6.30;;;2.50;99.90;;;-141.84;82.73;18775.44;5075761;28;20221;-59
2023/03/09 08:11:10;;;;;;;8.67;6.07;;;2.60;99.90;;;-141.84;81.93;18769.34;5035669;28;20209;-61
2023/03/09 08:13:38;;;;;;;7.97;6.17;;;2.50;99.90;;;-141.84;81.79;18742.94;5071212;28;20196;-60
2023/03/09 08:16:09;;;;;;;8.57;6.30;;;2.60;99.90;;;-141.84;81.81;18771.38;5070844;28;20229;-60
2023/03/09 08:18:38;;;;;;;8.40;6.50;;;2.50;99.90;;;-141.84;82.17;18751.06;5070748;28;20224;-60
2023/03/09 08:21:08;;;;;;;9.97;7.07;;;2.60;99.90;;;-141.84;82.39;18757.16;5070632;28;20230;-59
2023/03/09 08:23:39;;;;;;;7.90;6.00;;;2.70;99.90;;;-141.84;81.82;18791.69;5070860;28;20225;-60
2023/03/09 08:26:08;;;;;;;8.83;6.13;;;2.70;99.90;;;-141.84;82.35;18793.72;5070911;28;20195;-60
2023/03/09 08:28:36;;;;;;;9.53;6.27;;;2.70;99.90;;;-141.84;82.12;18787.63;5071671;28;20639;-60
2023/03/09 08:31:05;;;;;;;8.63;6.10;;;2.80;99.90;;;-141.84;81.43;18759.19;5062957;28;20284;-60
2023/03/09 08:33:33;;;;;;;8.07;6.20;;;3.00;99.90;;;-141.84;81.63;18803.88;5070761;28;20711;-61
2023/03/09 08:36:12;;;;;;;7.53;5.70;;;3.10;99.90;;;-141.84;81.84;18797.78;5071186;28;20233;-60
2023/03/09 08:38:42;;;;;;;7.77;6.03;;;3.00;99.90;;;-141.84;81.78;18801.84;5070522;28;20230;-60
2023/03/09 08:41:12;;;;;;;7.73;5.90;;;3.10;99.90;;;-141.84;81.45;18781.53;5052213;28;20202;-60
2023/03/09 08:43:40;;;;;;;7.77;5.80;;;3.10;99.90;;;-141.84;80.19;18846.56;5060052;28;20217;-60
2023/03/09 08:46:08;;;;;;;8.03;6.10;;;3.30;99.90;;;-141.84;79.48;18828.28;5053292;28;20212;-59
2023/03/09 08:48:37;;;;;;;7.37;5.77;;;3.40;99.90;;;-141.84;79.34;18846.56;5071064;28;20237;-58
2023/03/09 08:51:09;;;;;;;8.13;6.07;;;3.30;99.90;;;-141.84;79.56;18783.56;5070743;28;20224;-60
2023/03/09 08:53:38;;;;;;;8.27;5.93;;;3.40;99.90;;;-141.84;79.00;18818.09;5070172;28;20295;-59
2023/03/09 08:56:11;;;;;;;7.93;5.77;;;3.40;99.90;;;-141.84;79.09;18781.53;5070399;28;20711;-60
2023/03/09 08:58:40;;;;;;;8.30;5.87;;;3.50;99.90;;;-141.84;77.64;18854.69;5071183;28;20669;-60
2023/03/09 09:01:10;;;;;;;7.73;5.97;;;3.50;99.90;;;-141.84;77.94;18818.09;5070366;28;20255;-60
2023/03/09 09:03:39;;;;;;;8.70;6.87;;;3.40;99.90;;;-141.84;78.06;18838.44;5070391;28;20743;-61
2023/03/09 09:06:10;;;;;;;8.47;6.43;;;3.50;99.90;;;-141.84;78.08;18866.88;5070420;28;20227;-60
2023/03/09 09:08:39;;;;;;;8.57;6.13;;;3.50;99.90;;;-141.84;78.04;18854.69;5070513;28;20255;-60
2023/03/09 09:11:12;;;;;;;9.70;6.13;;;3.50;99.90;;;-141.84;77.85;18852.66;5069958;28;20704;-60
2023/03/09 09:13:41;;;;;;;8.47;6.57;;;3.50;99.90;;;-141.84;77.04;18883.13;5071155;28;20182;-60
2023/03/09 09:16:13;;;;;;;9.23;6.37;;;3.60;99.90;;;-141.84;75.50;18891.25;5035105;28;20449;-60
2023/03/09 09:18:41;;;;;;;8.33;6.07;;;3.60;99.90;;;-141.84;75.74;18895.31;5070516;28;20243;-60
2023/03/09 09:21:12;;;;;;;7.57;5.70;;;3.60;99.90;;;-141.84;76.12;18887.19;5070150;28;20249;-61
2023/03/09 09:23:43;;;;;;;8.53;5.93;;;3.60;99.90;;;-141.84;75.66;18860.78;5070791;28;20284;-60
2023/03/09 09:26:15;;;;;;;7.93;6.07;;;3.70;99.90;;;-141.84;75.42;18885.16;5067921;28;20228;-60
2023/03/09 09:28:45;;;;;;;8.00;6.23;;;3.70;99.90;;;-141.84;75.68;18895.31;5070715;28;20702;-59
2023/03/09 09:31:19;;;;;;;9.00;6.23;;;3.70;99.90;;;-141.84;75.25;18913.59;5069802;28;20588;-60
2023/03/09 09:33:48;;;;;;;8.40;6.40;;;3.80;99.90;;;-141.84;74.80;18893.28;5069961;28;20291;-59
2023/03/09 09:36:18;;;;;;;9.60;6.73;;;4.00;99.90;;;-141.84;73.46;18940.03;5069904;28;20228;-61
2023/03/09 09:38:48;;;;;;;8.87;6.17;;;4.00;99.90;;;-141.84;74.17;18925.81;5069813;28;20714;-59
2023/03/09 09:41:24;;;;;;;9.70;6.73;;;4.00;99.90;;;-141.84;74.01;18929.88;5069849;28;20234;-61
2023/03/09 09:43:57;;;;;;;9.27;6.80;;;4.10;99.90;;;-141.84;74.69;18913.59;5070883;28;20184;-59
2023/03/09 09:46:28;;;;;;;8.67;6.47;;;4.10;99.90;;;-141.84;73.53;18942.06;5069760;28;20224;-60
2023/03/09 09:48:58;;;;;;;7.57;5.67;;;4.20;99.90;;;-141.84;74.17;18899.38;5069759;28;20588;-59
2023/03/09 09:51:55;;;;;;;9.60;6.83;;;4.30;99.90;;;-141.84;73.37;18935.97;5069706;28;20230;-59
2023/03/09 09:54:37;;;;;;;8.70;6.30;;;4.40;99.90;;;-141.84;73.02;18964.41;5069888;28;20278;-60
2023/03/09 09:57:16;;;;;;;8.50;6.63;;;4.70;99.90;;;-141.84;71.81;19017.25;5070052;28;20228;-60
2023/03/09 09:59:56;;;;;;;10.10;6.60;;;4.80;99.90;;;-141.84;71.17;19055.84;5069791;28;20220;-59
2023/03/09 10:02:41;;;;;;;8.53;6.47;;;4.90;99.90;;;-141.84;71.04;19011.13;5069672;28;20698;-59
2023/03/09 10:05:18;;;;;;;9.23;7.40;;;4.80;99.90;;;-141.84;71.23;18998.94;5070492;28;20238;-59
2023/03/09 10:07:47;;;;;;;8.37;6.57;;;4.80;99.90;;;-141.84;71.41;18964.41;5070051;28;20665;-60
2023/03/09 10:10:22;;;;;;;9.50;6.90;;;4.80;99.90;;;-141.84;71.96;18984.72;5064220;28;20228;-60
2023/03/09 10:12:52;;;;;;;8.67;6.87;;;4.70;99.90;;;-141.84;72.29;18974.56;5073445;28;20236;-59
2023/03/09 10:15:28;;;;;;;11.37;8.17;;;4.70;99.90;;;-141.84;72.53;18984.72;5073421;28;20840;-60
2023/03/09 10:18:03;;;;;;;10.77;7.07;;;4.40;99.90;;;-141.84;72.10;18972.53;5073746;28;20226;-61
2023/03/09 10:20:37;;;;;;;9.73;7.33;;;4.60;99.90;;;-141.84;72.04;18970.50;5073367;28;20311;-61
2023/03/09 10:23:25;;;;;;;12.43;8.43;;;4.60;99.90;;;-141.84;71.62;18972.53;5072994;28;20189;-60